sensor_id;sensor_type;location;lat;lon;timestamp;P1;durP1;ratioP1;P2;durP2;ratioP2
32138;SDS011;18644;48.700;9.210;2023-06-26T00:00:45;5.05;;;3.92;;
32138;SDS011;18644;48.700;9.210;2023-06-26T00:03:13;4.63;;;3.78;;
32138;SDS011;18644;48.700;9.210;2023-06-26T00:05:40;4.80;;;3.90;;
32138;SDS011;18644;48.700;9.210;2023-06-26T00:08:07;5.07;;;4.20;;
32138;SDS011;18644;48.700;9.210;2023-06-26T00:10:34;5.53;;;4.20;;
32138;SDS011;18644;48.700;9.210;2023-06-26T00:13:02;5.05;;;3.72;;
32138;SDS011;18644;48.700;9.210;2023-06-26T00:15:29;4.65;;;3.75;;
32138;SDS011;18644;48.700;9.210;2023-06-26T00:17:56;5.40;;;4.00;;
32138;SDS011;18644;48.700;9.210;2023-06-26T00:20:23;5.05;;;4.03;;
32138;SDS011;18644;48.700;9.210;2023-06-26T00:22:51;5.13;;;4.13;;
32138;SDS011;18644;48.700;9.210;2023-06-26T00:25:18;5.22;;;4.05;;
32138;SDS011;18644;48.700;9.210;2023-06-26T00:27:46;4.68;;;4.10;;
32138;SDS011;18644;48.700;9.210;2023-06-26T00:30:14;5.50;;;4.30;;
32138;SDS011;18644;48.700;9.210;2023-06-26T00:32:41;5.70;;;4.38;;
32138;SDS011;18644;48.700;9.210;2023-06-26T00:35:08;5.28;;;4.20;;
32138;SDS011;18644;48.700;9.210;2023-06-26T00:37:35;6.60;;;5.03;;
32138;SDS011;18644;48.700;9.210;2023-06-26T00:40:01;6.68;;;4.75;;
32138;SDS011;18644;48.700;9.210;2023-06-26T00:42:30;5.60;;;4.50;;
32138;SDS011;18644;48.700;9.210;2023-06-26T00:44:57;6.05;;;4.32;;
32138;SDS011;18644;48.700;9.210;2023-06-26T00:47:25;6.28;;;4.40;;
32138;SDS011;18644;48.700;9.210;2023-06-26T00:49:54;4.85;;;3.90;;
32138;SDS011;18644;48.700;9.210;2023-06-26T00:52:22;6.05;;;4.10;;
32138;SDS011;18644;48.700;9.210;2023-06-26T00:54:49;4.93;;;3.97;;
32138;SDS011;18644;48.700;9.210;2023-06-26T00:57:17;5.28;;;4.07;;
32138;SDS011;18644;48.700;9.210;2023-06-26T00:59:44;4.75;;;4.18;;
32138;SDS011;18644;48.700;9.210;2023-06-26T01:02:11;5.05;;;3.83;;
32138;SDS011;18644;48.700;9.210;2023-06-26T01:04:46;7.28;;;4.00;;
32138;SDS011;18644;48.700;9.210;2023-06-26T01:07:14;5.43;;;4.05;;
32138;SDS011;18644;48.700;9.210;2023-06-26T01:09:43;9.63;;;4.93;;
32138;SDS011;18644;48.700;9.210;2023-06-26T01:12:12;5.18;;;4.03;;
32138;SDS011;18644;48.700;9.210;2023-06-26T01:14:39;7.43;;;4.93;;
32138;SDS011;18644;48.700;9.210;2023-06-26T01:17:06;5.70;;;4.10;;
32138;SDS011;18644;48.700;9.210;2023-06-26T01:19:36;5.00;;;4.07;;
32138;SDS011;18644;48.700;9.210;2023-06-26T01:22:07;7.72;;;4.50;;
32138;SDS011;18644;48.700;9.210;2023-06-26T01:24:42;6.82;;;4.88;;
32138;SDS011;18644;48.700;9.210;2023-06-26T01:29:52;4.85;;;3.67;;
32138;SDS011;18644;48.700;9.210;2023-06-26T01:32:21;5.78;;;4.13;;
32138;SDS011;18644;48.700;9.210;2023-06-26T01:34:48;4.72;;;3.80;;
32138;SDS011;18644;48.700;9.210;2023-06-26T01:37:16;4.97;;;4.03;;
32138;SDS011;18644;48.700;9.210;2023-06-26T01:39:43;4.57;;;3.97;;
32138;SDS011;18644;48.700;9.210;2023-06-26T01:42:10;4.50;;;3.78;;
32138;SDS011;18644;48.700;9.210;2023-06-26T01:44:40;5.82;;;4.55;;
32138;SDS011;18644;48.700;9.210;2023-06-26T01:47:12;4.43;;;3.78;;
32138;SDS011;18644;48.700;9.210;2023-06-26T01:49:46;6.50;;;4.40;;
32138;SDS011;18644;48.700;9.210;2023-06-26T01:52:19;6.85;;;4.03;;
32138;SDS011;18644;48.700;9.210;2023-06-26T01:54:52;6.10;;;4.55;;
32138;SDS011;18644;48.700;9.210;2023-06-26T01:57:24;5.43;;;4.55;;
32138;SDS011;18644;48.700;9.210;2023-06-26T01:59:55;5.22;;;4.13;;
32138;SDS011;18644;48.700;9.210;2023-06-26T02:02:23;4.75;;;3.95;;
32138;SDS011;18644;48.700;9.210;2023-06-26T02:04:51;6.22;;;4.97;;
32138;SDS011;18644;48.700;9.210;2023-06-26T02:07:18;7.25;;;4.65;;
32138;SDS011;18644;48.700;9.210;2023-06-26T02:09:45;6.07;;;4.15;;
32138;SDS011;18644;48.700;9.210;2023-06-26T02:12:12;7.93;;;4.65;;
32138;SDS011;18644;48.700;9.210;2023-06-26T02:14:39;7.55;;;4.10;;
32138;SDS011;18644;48.700;9.210;2023-06-26T02:17:08;7.05;;;4.45;;
32138;SDS011;18644;48.700;9.210;2023-06-26T02:19:35;5.13;;;3.88;;
32138;SDS011;18644;48.700;9.210;2023-06-26T02:22:02;6.45;;;4.20;;
32138;SDS011;18644;48.700;9.210;2023-06-26T02:24:29;6.18;;;4.30;;
32138;SDS011;18644;48.700;9.210;2023-06-26T02:26:56;5.28;;;4.20;;
32138;SDS011;18644;48.700;9.210;2023-06-26T02:29:23;7.03;;;4.95;;
32138;SDS011;18644;48.700;9.210;2023-06-26T02:31:50;7.15;;;4.47;;
32138;SDS011;18644;48.700;9.210;2023-06-26T02:34:18;5.15;;;3.90;;
32138;SDS011;18644;48.700;9.210;2023-06-26T02:36:45;5.65;;;3.85;;
32138;SDS011;18644;48.700;9.210;2023-06-26T02:39:12;6.03;;;4.22;;
32138;SDS011;18644;48.700;9.210;2023-06-26T02:41:39;7.63;;;4.25;;
32138;SDS011;18644;48.700;9.210;2023-06-26T02:44:06;6.22;;;4.55;;
32138;SDS011;18644;48.700;9.210;2023-06-26T02:46:33;6.53;;;4.18;;
32138;SDS011;18644;48.700;9.210;2023-06-26T02:49:00;5.30;;;3.85;;
32138;SDS011;18644;48.700;9.210;2023-06-26T02:51:28;5.13;;;3.97;;
32138;SDS011;18644;48.700;9.210;2023-06-26T02:53:55;7.80;;;4.40;;
32138;SDS011;18644;48.700;9.210;2023-06-26T02:56:22;6.25;;;4.30;;
32138;SDS011;18644;48.700;9.210;2023-06-26T02:58:49;6.80;;;5.28;;
32138;SDS011;18644;48.700;9.210;2023-06-26T03:01:16;4.80;;;3.28;;
32138;SDS011;18644;48.700;9.210;2023-06-26T03:03:44;4.55;;;3.90;;
32138;SDS011;18644;48.700;9.210;2023-06-26T03:06:12;6.35;;;4.18;;
32138;SDS011;18644;48.700;9.210;2023-06-26T03:08:40;5.85;;;4.43;;
32138;SDS011;18644;48.700;9.210;2023-06-26T03:11:07;4.88;;;4.13;;
32138;SDS011;18644;48.700;9.210;2023-06-26T03:13:35;8.57;;;4.43;;
32138;SDS011;18644;48.700;9.210;2023-06-26T03:16:03;7.05;;;4.90;;
32138;SDS011;18644;48.700;9.210;2023-06-26T03:18:31;5.63;;;4.13;;
32138;SDS011;18644;48.700;9.210;2023-06-26T03:20:58;5.88;;;4.38;;
32138;SDS011;18644;48.700;9.210;2023-06-26T03:23:28;4.85;;;4.03;;
32138;SDS011;18644;48.700;9.210;2023-06-26T03:25:56;6.25;;;4.15;;
32138;SDS011;18644;48.700;9.210;2023-06-26T03:28:23;6.72;;;4.60;;
32138;SDS011;18644;48.700;9.210;2023-06-26T03:30:50;5.97;;;4.25;;
32138;SDS011;18644;48.700;9.210;2023-06-26T03:33:17;6.15;;;4.55;;
32138;SDS011;18644;48.700;9.210;2023-06-26T03:35:44;6.10;;;4.30;;
32138;SDS011;18644;48.700;9.210;2023-06-26T03:38:11;5.50;;;4.07;;
32138;SDS011;18644;48.700;9.210;2023-06-26T03:40:38;5.60;;;4.05;;
32138;SDS011;18644;48.700;9.210;2023-06-26T03:43:07;6.90;;;3.95;;
32138;SDS011;18644;48.700;9.210;2023-06-26T03:45:34;5.35;;;4.22;;
32138;SDS011;18644;48.700;9.210;2023-06-26T03:48:01;5.80;;;4.15;;
32138;SDS011;18644;48.700;9.210;2023-06-26T03:50:28;7.18;;;4.50;;
32138;SDS011;18644;48.700;9.210;2023-06-26T03:52:55;9.30;;;4.60;;
32138;SDS011;18644;48.700;9.210;2023-06-26T03:55:23;6.72;;;4.57;;
32138;SDS011;18644;48.700;9.210;2023-06-26T03:57:50;5.75;;;4.40;;
32138;SDS011;18644;48.700;9.210;2023-06-26T04:00:18;7.82;;;4.28;;
32138;SDS011;18644;48.700;9.210;2023-06-26T04:02:45;5.50;;;4.22;;
32138;SDS011;18644;48.700;9.210;2023-06-26T04:05:12;6.35;;;4.78;;
32138;SDS011;18644;48.700;9.210;2023-06-26T04:07:40;5.78;;;4.32;;
32138;SDS011;18644;48.700;9.210;2023-06-26T04:10:07;5.88;;;4.18;;
32138;SDS011;18644;48.700;9.210;2023-06-26T04:12:35;6.03;;;3.80;;
32138;SDS011;18644;48.700;9.210;2023-06-26T04:15:02;6.97;;;4.93;;
32138;SDS011;18644;48.700;9.210;2023-06-26T04:17:32;6.55;;;4.78;;
32138;SDS011;18644;48.700;9.210;2023-06-26T04:19:59;5.53;;;4.45;;
32138;SDS011;18644;48.700;9.210;2023-06-26T04:22:26;7.22;;;4.70;;
32138;SDS011;18644;48.700;9.210;2023-06-26T04:24:53;6.35;;;4.80;;
32138;SDS011;18644;48.700;9.210;2023-06-26T04:27:20;8.20;;;4.43;;
32138;SDS011;18644;48.700;9.210;2023-06-26T04:29:47;7.53;;;4.75;;
32138;SDS011;18644;48.700;9.210;2023-06-26T04:32:13;6.93;;;4.40;;
32138;SDS011;18644;48.700;9.210;2023-06-26T04:34:42;6.40;;;4.97;;
32138;SDS011;18644;48.700;9.210;2023-06-26T04:37:09;6.20;;;4.80;;
32138;SDS011;18644;48.700;9.210;2023-06-26T04:39:36;6.47;;;4.82;;
32138;SDS011;18644;48.700;9.210;2023-06-26T04:42:04;15.52;;;5.70;;
32138;SDS011;18644;48.700;9.210;2023-06-26T04:44:32;6.93;;;5.35;;
32138;SDS011;18644;48.700;9.210;2023-06-26T04:46:59;6.18;;;4.90;;
32138;SDS011;18644;48.700;9.210;2023-06-26T04:49:26;6.60;;;5.15;;
32138;SDS011;18644;48.700;9.210;2023-06-26T04:51:55;6.43;;;5.00;;
32138;SDS011;18644;48.700;9.210;2023-06-26T04:54:26;6.90;;;5.15;;
32138;SDS011;18644;48.700;9.210;2023-06-26T04:56:53;8.57;;;5.50;;
32138;SDS011;18644;48.700;9.210;2023-06-26T04:59:21;6.95;;;5.00;;
32138;SDS011;18644;48.700;9.210;2023-06-26T05:01:49;11.63;;;5.68;;
32138;SDS011;18644;48.700;9.210;2023-06-26T05:04:16;6.80;;;5.35;;
32138;SDS011;18644;48.700;9.210;2023-06-26T05:06:44;6.43;;;4.78;;
32138;SDS011;18644;48.700;9.210;2023-06-26T05:09:12;6.18;;;4.90;;
32138;SDS011;18644;48.700;9.210;2023-06-26T05:11:39;7.95;;;5.60;;
32138;SDS011;18644;48.700;9.210;2023-06-26T05:14:06;7.40;;;5.40;;
32138;SDS011;18644;48.700;9.210;2023-06-26T05:16:34;8.20;;;4.93;;
32138;SDS011;18644;48.700;9.210;2023-06-26T05:19:01;6.95;;;4.50;;
32138;SDS011;18644;48.700;9.210;2023-06-26T05:21:28;6.50;;;4.88;;
32138;SDS011;18644;48.700;9.210;2023-06-26T05:23:56;6.80;;;5.20;;
32138;SDS011;18644;48.700;9.210;2023-06-26T05:26:25;5.57;;;4.35;;
32138;SDS011;18644;48.700;9.210;2023-06-26T05:28:53;4.82;;;4.15;;
32138;SDS011;18644;48.700;9.210;2023-06-26T05:31:21;5.63;;;4.78;;
32138;SDS011;18644;48.700;9.210;2023-06-26T05:33:48;7.53;;;5.43;;
32138;SDS011;18644;48.700;9.210;2023-06-26T05:36:16;7.15;;;5.30;;
32138;SDS011;18644;48.700;9.210;2023-06-26T05:38:45;5.85;;;4.70;;
32138;SDS011;18644;48.700;9.210;2023-06-26T05:41:13;8.65;;;5.28;;
32138;SDS011;18644;48.700;9.210;2023-06-26T05:43:42;6.07;;;4.80;;
32138;SDS011;18644;48.700;9.210;2023-06-26T05:46:09;7.30;;;4.78;;
32138;SDS011;18644;48.700;9.210;2023-06-26T05:48:36;4.75;;;3.78;;
32138;SDS011;18644;48.700;9.210;2023-06-26T05:51:04;4.30;;;3.65;;
32138;SDS011;18644;48.700;9.210;2023-06-26T05:53:33;4.88;;;4.07;;
32138;SDS011;18644;48.700;9.210;2023-06-26T05:56:00;4.53;;;4.13;;
32138;SDS011;18644;48.700;9.210;2023-06-26T05:58:28;4.93;;;4.30;;
32138;SDS011;18644;48.700;9.210;2023-06-26T06:00:57;5.85;;;3.63;;
32138;SDS011;18644;48.700;9.210;2023-06-26T06:03:24;4.63;;;3.67;;
32138;SDS011;18644;48.700;9.210;2023-06-26T06:05:51;5.57;;;4.32;;
32138;SDS011;18644;48.700;9.210;2023-06-26T06:08:18;6.43;;;4.05;;
32138;SDS011;18644;48.700;9.210;2023-06-26T06:10:45;4.63;;;3.63;;
32138;SDS011;18644;48.700;9.210;2023-06-26T06:13:12;4.15;;;3.75;;
32138;SDS011;18644;48.700;9.210;2023-06-26T06:15:39;6.07;;;3.90;;
32138;SDS011;18644;48.700;9.210;2023-06-26T06:18:07;3.90;;;3.50;;
32138;SDS011;18644;48.700;9.210;2023-06-26T06:20:34;4.63;;;3.45;;
32138;SDS011;18644;48.700;9.210;2023-06-26T06:23:01;4.30;;;3.58;;
32138;SDS011;18644;48.700;9.210;2023-06-26T06:25:28;5.63;;;3.80;;
32138;SDS011;18644;48.700;9.210;2023-06-26T06:27:55;5.07;;;3.65;;
32138;SDS011;18644;48.700;9.210;2023-06-26T06:30:22;4.90;;;3.63;;
32138;SDS011;18644;48.700;9.210;2023-06-26T06:32:49;5.03;;;4.22;;
32138;SDS011;18644;48.700;9.210;2023-06-26T06:35:19;4.55;;;3.75;;
32138;SDS011;18644;48.700;9.210;2023-06-26T06:40:22;4.32;;;3.58;;
32138;SDS011;18644;48.700;9.210;2023-06-26T06:53:13;4.25;;;3.28;;
32138;SDS011;18644;48.700;9.210;2023-06-26T06:58:24;4.90;;;3.58;;
32138;SDS011;18644;48.700;9.210;2023-06-26T07:05:49;3.03;;;2.67;;
32138;SDS011;18644;48.700;9.210;2023-06-26T07:08:17;2.80;;;2.55;;
32138;SDS011;18644;48.700;9.210;2023-06-26T07:10:44;3.65;;;2.97;;
32138;SDS011;18644;48.700;9.210;2023-06-26T07:13:11;6.65;;;3.47;;
32138;SDS011;18644;48.700;9.210;2023-06-26T07:15:38;4.30;;;3.35;;
32138;SDS011;18644;48.700;9.210;2023-06-26T07:18:05;3.45;;;2.83;;
32138;SDS011;18644;48.700;9.210;2023-06-26T07:20:32;6.25;;;3.17;;
32138;SDS011;18644;48.700;9.210;2023-06-26T07:22:59;4.50;;;3.13;;
32138;SDS011;18644;48.700;9.210;2023-06-26T07:25:27;3.40;;;3.03;;
32138;SDS011;18644;48.700;9.210;2023-06-26T07:27:54;5.55;;;3.25;;
32138;SDS011;18644;48.700;9.210;2023-06-26T07:30:21;3.38;;;3.08;;
32138;SDS011;18644;48.700;9.210;2023-06-26T07:32:49;4.88;;;2.90;;
32138;SDS011;18644;48.700;9.210;2023-06-26T07:35:16;3.60;;;3.20;;
32138;SDS011;18644;48.700;9.210;2023-06-26T07:37:43;4.28;;;3.35;;
32138;SDS011;18644;48.700;9.210;2023-06-26T07:40:10;3.20;;;2.90;;
32138;SDS011;18644;48.700;9.210;2023-06-26T07:42:39;3.55;;;3.13;;
32138;SDS011;18644;48.700;9.210;2023-06-26T07:45:06;3.05;;;2.75;;
32138;SDS011;18644;48.700;9.210;2023-06-26T07:47:36;4.03;;;3.30;;
32138;SDS011;18644;48.700;9.210;2023-06-26T07:50:03;3.90;;;3.05;;
32138;SDS011;18644;48.700;9.210;2023-06-26T07:52:31;3.47;;;2.75;;
32138;SDS011;18644;48.700;9.210;2023-06-26T07:54:58;3.78;;;2.90;;
32138;SDS011;18644;48.700;9.210;2023-06-26T07:57:25;3.20;;;2.90;;
32138;SDS011;18644;48.700;9.210;2023-06-26T07:59:53;2.90;;;2.63;;
32138;SDS011;18644;48.700;9.210;2023-06-26T08:02:21;3.17;;;2.88;;
32138;SDS011;18644;48.700;9.210;2023-06-26T08:04:48;4.65;;;3.00;;
32138;SDS011;18644;48.700;9.210;2023-06-26T08:07:15;2.92;;;2.58;;
32138;SDS011;18644;48.700;9.210;2023-06-26T08:09:43;3.00;;;2.70;;
32138;SDS011;18644;48.700;9.210;2023-06-26T08:12:10;4.82;;;2.80;;
32138;SDS011;18644;48.700;9.210;2023-06-26T08:14:40;3.33;;;2.85;;
32138;SDS011;18644;48.700;9.210;2023-06-26T08:17:08;2.83;;;2.55;;
32138;SDS011;18644;48.700;9.210;2023-06-26T08:19:35;5.30;;;3.47;;
32138;SDS011;18644;48.700;9.210;2023-06-26T08:22:02;2.92;;;2.45;;
32138;SDS011;18644;48.700;9.210;2023-06-26T08:24:29;2.75;;;2.55;;
32138;SDS011;18644;48.700;9.210;2023-06-26T08:26:56;4.93;;;2.58;;
32138;SDS011;18644;48.700;9.210;2023-06-26T08:29:24;2.70;;;2.50;;
32138;SDS011;18644;48.700;9.210;2023-06-26T08:31:50;3.38;;;3.08;;
32138;SDS011;18644;48.700;9.210;2023-06-26T08:34:19;3.00;;;2.70;;
32138;SDS011;18644;48.700;9.210;2023-06-26T08:36:45;3.10;;;2.80;;
32138;SDS011;18644;48.700;9.210;2023-06-26T08:39:12;4.57;;;2.63;;
32138;SDS011;18644;48.700;9.210;2023-06-26T08:41:39;9.02;;;2.65;;
32138;SDS011;18644;48.700;9.210;2023-06-26T08:44:07;3.10;;;2.80;;
32138;SDS011;18644;48.700;9.210;2023-06-26T08:46:34;3.97;;;2.42;;
32138;SDS011;18644;48.700;9.210;2023-06-26T08:49:08;3.33;;;2.90;;
32138;SDS011;18644;48.700;9.210;2023-06-26T08:51:49;4.03;;;2.53;;
32138;SDS011;18644;48.700;9.210;2023-06-26T08:54:19;2.58;;;2.20;;
32138;SDS011;18644;48.700;9.210;2023-06-26T08:56:54;2.95;;;2.65;;
32138;SDS011;18644;48.700;9.210;2023-06-26T08:59:24;3.00;;;2.70;;
32138;SDS011;18644;48.700;9.210;2023-06-26T09:01:51;2.72;;;2.47;;
32138;SDS011;18644;48.700;9.210;2023-06-26T09:04:20;4.70;;;2.50;;
32138;SDS011;18644;48.700;9.210;2023-06-26T09:06:47;2.70;;;2.50;;
32138;SDS011;18644;48.700;9.210;2023-06-26T09:09:14;2.80;;;2.60;;
32138;SDS011;18644;48.700;9.210;2023-06-26T09:11:41;3.58;;;3.13;;
32138;SDS011;18644;48.700;9.210;2023-06-26T09:14:08;3.05;;;2.50;;
32138;SDS011;18644;48.700;9.210;2023-06-26T09:16:39;2.80;;;2.60;;
32138;SDS011;18644;48.700;9.210;2023-06-26T09:19:08;3.45;;;2.80;;
32138;SDS011;18644;48.700;9.210;2023-06-26T09:21:39;3.58;;;3.28;;
32138;SDS011;18644;48.700;9.210;2023-06-26T09:24:07;3.55;;;2.58;;
32138;SDS011;18644;48.700;9.210;2023-06-26T09:26:35;2.83;;;2.63;;
32138;SDS011;18644;48.700;9.210;2023-06-26T09:29:03;3.47;;;3.10;;
32138;SDS011;18644;48.700;9.210;2023-06-26T09:31:31;3.03;;;2.72;;
32138;SDS011;18644;48.700;9.210;2023-06-26T09:34:01;3.30;;;3.00;;
32138;SDS011;18644;48.700;9.210;2023-06-26T09:36:29;2.92;;;2.72;;
32138;SDS011;18644;48.700;9.210;2023-06-26T09:39:00;3.13;;;2.67;;
32138;SDS011;18644;48.700;9.210;2023-06-26T09:41:27;4.97;;;2.95;;
32138;SDS011;18644;48.700;9.210;2023-06-26T09:43:56;2.85;;;2.65;;
32138;SDS011;18644;48.700;9.210;2023-06-26T09:46:29;2.90;;;2.70;;
32138;SDS011;18644;48.700;9.210;2023-06-26T09:48:58;3.20;;;2.90;;
32138;SDS011;18644;48.700;9.210;2023-06-26T09:51:29;3.47;;;3.17;;
32138;SDS011;18644;48.700;9.210;2023-06-26T09:53:57;3.25;;;2.95;;
32138;SDS011;18644;48.700;9.210;2023-06-26T09:56:28;3.13;;;2.67;;
32138;SDS011;18644;48.700;9.210;2023-06-26T09:58:56;3.95;;;3.10;;
32138;SDS011;18644;48.700;9.210;2023-06-26T10:01:24;3.30;;;2.95;;
32138;SDS011;18644;48.700;9.210;2023-06-26T10:03:53;3.40;;;3.00;;
32138;SDS011;18644;48.700;9.210;2023-06-26T10:06:22;3.42;;;2.88;;
32138;SDS011;18644;48.700;9.210;2023-06-26T10:08:54;3.05;;;2.78;;
32138;SDS011;18644;48.700;9.210;2023-06-26T10:11:24;5.43;;;3.63;;
32138;SDS011;18644;48.700;9.210;2023-06-26T10:13:59;3.88;;;2.70;;
32138;SDS011;18644;48.700;9.210;2023-06-26T10:16:27;2.85;;;2.65;;
32138;SDS011;18644;48.700;9.210;2023-06-26T10:18:58;3.53;;;3.17;;
32138;SDS011;18644;48.700;9.210;2023-06-26T10:21:34;2.60;;;2.33;;
32138;SDS011;18644;48.700;9.210;2023-06-26T10:24:16;3.17;;;2.92;;
32138;SDS011;18644;48.700;9.210;2023-06-26T10:26:48;3.45;;;3.15;;
32138;SDS011;18644;48.700;9.210;2023-06-26T10:29:17;3.40;;;3.10;;
32138;SDS011;18644;48.700;9.210;2023-06-26T10:31:48;5.50;;;3.08;;
32138;SDS011;18644;48.700;9.210;2023-06-26T10:34:19;3.17;;;2.90;;
32138;SDS011;18644;48.700;9.210;2023-06-26T10:36:46;3.10;;;2.80;;
32138;SDS011;18644;48.700;9.210;2023-06-26T10:39:16;3.47;;;3.17;;
32138;SDS011;18644;48.700;9.210;2023-06-26T10:41:43;3.47;;;3.17;;
32138;SDS011;18644;48.700;9.210;2023-06-26T10:44:12;3.15;;;2.85;;
32138;SDS011;18644;48.700;9.210;2023-06-26T10:46:49;4.50;;;3.17;;
32138;SDS011;18644;48.700;9.210;2023-06-26T10:49:18;4.65;;;3.70;;
32138;SDS011;18644;48.700;9.210;2023-06-26T10:51:48;3.50;;;3.20;;
32138;SDS011;18644;48.700;9.210;2023-06-26T10:54:17;4.20;;;3.80;;
32138;SDS011;18644;48.700;9.210;2023-06-26T10:56:47;3.83;;;3.45;;
32138;SDS011;18644;48.700;9.210;2023-06-26T10:59:16;3.88;;;3.33;;
32138;SDS011;18644;48.700;9.210;2023-06-26T11:01:45;4.32;;;3.60;;
32138;SDS011;18644;48.700;9.210;2023-06-26T11:04:35;3.40;;;3.10;;
32138;SDS011;18644;48.700;9.210;2023-06-26T11:07:16;5.20;;;3.20;;
32138;SDS011;18644;48.700;9.210;2023-06-26T11:09:54;4.13;;;3.72;;
32138;SDS011;18644;48.700;9.210;2023-06-26T11:12:37;4.50;;;3.58;;
32138;SDS011;18644;48.700;9.210;2023-06-26T11:15:07;3.95;;;3.08;;
32138;SDS011;18644;48.700;9.210;2023-06-26T11:17:35;4.03;;;3.53;;
32138;SDS011;18644;48.700;9.210;2023-06-26T11:20:05;3.30;;;3.00;;
32138;SDS011;18644;48.700;9.210;2023-06-26T11:22:35;4.32;;;3.00;;
32138;SDS011;18644;48.700;9.210;2023-06-26T11:25:05;4.47;;;4.03;;
32138;SDS011;18644;48.700;9.210;2023-06-26T11:27:39;3.75;;;3.45;;
32138;SDS011;18644;48.700;9.210;2023-06-26T11:30:07;3.35;;;3.05;;
32138;SDS011;18644;48.700;9.210;2023-06-26T11:32:38;4.63;;;3.72;;
32138;SDS011;18644;48.700;9.210;2023-06-26T11:35:07;3.50;;;3.20;;
32138;SDS011;18644;48.700;9.210;2023-06-26T11:37:35;9.30;;;4.18;;
32138;SDS011;18644;48.700;9.210;2023-06-26T11:40:15;4.72;;;3.53;;
32138;SDS011;18644;48.700;9.210;2023-06-26T11:42:45;4.63;;;3.78;;
32138;SDS011;18644;48.700;9.210;2023-06-26T11:45:14;5.00;;;4.05;;
32138;SDS011;18644;48.700;9.210;2023-06-26T11:47:42;7.68;;;3.97;;
32138;SDS011;18644;48.700;9.210;2023-06-26T11:50:14;3.80;;;3.50;;
32138;SDS011;18644;48.700;9.210;2023-06-26T11:52:42;3.72;;;3.42;;
32138;SDS011;18644;48.700;9.210;2023-06-26T11:55:09;4.47;;;3.95;;
32138;SDS011;18644;48.700;9.210;2023-06-26T11:57:37;5.25;;;3.72;;
32138;SDS011;18644;48.700;9.210;2023-06-26T12:00:11;3.72;;;3.40;;
32138;SDS011;18644;48.700;9.210;2023-06-26T12:02:39;3.92;;;3.33;;
32138;SDS011;18644;48.700;9.210;2023-06-26T12:05:07;4.05;;;3.35;;
32138;SDS011;18644;48.700;9.210;2023-06-26T12:07:35;3.75;;;3.45;;
32138;SDS011;18644;48.700;9.210;2023-06-26T12:10:02;5.18;;;3.58;;
32138;SDS011;18644;48.700;9.210;2023-06-26T12:12:31;3.80;;;3.45;;
32138;SDS011;18644;48.700;9.210;2023-06-26T12:15:00;3.95;;;3.55;;
32138;SDS011;18644;48.700;9.210;2023-06-26T12:17:28;3.90;;;3.50;;
32138;SDS011;18644;48.700;9.210;2023-06-26T12:19:55;3.75;;;3.45;;
32138;SDS011;18644;48.700;9.210;2023-06-26T12:22:23;3.55;;;3.25;;
32138;SDS011;18644;48.700;9.210;2023-06-26T12:24:50;6.10;;;3.08;;
32138;SDS011;18644;48.700;9.210;2023-06-26T12:27:17;3.80;;;3.20;;
32138;SDS011;18644;48.700;9.210;2023-06-26T12:29:47;4.00;;;3.60;;
32138;SDS011;18644;48.700;9.210;2023-06-26T12:32:18;5.63;;;3.90;;
32138;SDS011;18644;48.700;9.210;2023-06-26T12:34:48;4.78;;;4.38;;
32138;SDS011;18644;48.700;9.210;2023-06-26T12:37:16;3.38;;;3.08;;
32138;SDS011;18644;48.700;9.210;2023-06-26T12:39:47;4.03;;;3.35;;
32138;SDS011;18644;48.700;9.210;2023-06-26T12:42:15;3.40;;;3.10;;
32138;SDS011;18644;48.700;9.210;2023-06-26T12:44:44;3.67;;;3.30;;
32138;SDS011;18644;48.700;9.210;2023-06-26T12:47:13;3.72;;;3.42;;
32138;SDS011;18644;48.700;9.210;2023-06-26T12:49:42;4.38;;;3.60;;
32138;SDS011;18644;48.700;9.210;2023-06-26T12:52:12;3.97;;;3.47;;
32138;SDS011;18644;48.700;9.210;2023-06-26T12:54:41;5.13;;;3.30;;
32138;SDS011;18644;48.700;9.210;2023-06-26T12:57:09;3.60;;;3.30;;
32138;SDS011;18644;48.700;9.210;2023-06-26T12:59:39;5.13;;;3.30;;
32138;SDS011;18644;48.700;9.210;2023-06-26T13:02:07;3.67;;;3.30;;
32138;SDS011;18644;48.700;9.210;2023-06-26T13:04:36;4.05;;;3.70;;
32138;SDS011;18644;48.700;9.210;2023-06-26T13:07:05;3.72;;;3.42;;
32138;SDS011;18644;48.700;9.210;2023-06-26T13:09:34;3.50;;;3.17;;
32138;SDS011;18644;48.700;9.210;2023-06-26T13:12:02;3.92;;;3.53;;
32138;SDS011;18644;48.700;9.210;2023-06-26T13:14:29;3.83;;;3.38;;
32138;SDS011;18644;48.700;9.210;2023-06-26T13:16:56;4.22;;;3.70;;
32138;SDS011;18644;48.700;9.210;2023-06-26T13:19:23;4.00;;;3.60;;
32138;SDS011;18644;48.700;9.210;2023-06-26T13:21:50;3.70;;;3.40;;
32138;SDS011;18644;48.700;9.210;2023-06-26T13:24:17;4.60;;;3.30;;
32138;SDS011;18644;48.700;9.210;2023-06-26T13:26:46;4.10;;;3.70;;
32138;SDS011;18644;48.700;9.210;2023-06-26T13:29:13;3.90;;;3.50;;
32138;SDS011;18644;48.700;9.210;2023-06-26T13:31:41;4.68;;;3.85;;
32138;SDS011;18644;48.700;9.210;2023-06-26T13:34:07;3.40;;;3.10;;
32138;SDS011;18644;48.700;9.210;2023-06-26T13:36:34;5.45;;;3.30;;
32138;SDS011;18644;48.700;9.210;2023-06-26T13:39:02;3.78;;;3.40;;
32138;SDS011;18644;48.700;9.210;2023-06-26T13:41:29;3.88;;;3.53;;
32138;SDS011;18644;48.700;9.210;2023-06-26T13:43:58;4.22;;;3.20;;
32138;SDS011;18644;48.700;9.210;2023-06-26T13:46:25;4.38;;;3.53;;
32138;SDS011;18644;48.700;9.210;2023-06-26T13:48:52;3.92;;;3.42;;
32138;SDS011;18644;48.700;9.210;2023-06-26T13:51:19;4.57;;;3.17;;
32138;SDS011;18644;48.700;9.210;2023-06-26T13:53:46;3.58;;;3.28;;
32138;SDS011;18644;48.700;9.210;2023-06-26T13:56:13;4.38;;;3.10;;
32138;SDS011;18644;48.700;9.210;2023-06-26T13:58:40;3.92;;;3.53;;
32138;SDS011;18644;48.700;9.210;2023-06-26T14:01:09;3.63;;;3.28;;
32138;SDS011;18644;48.700;9.210;2023-06-26T14:03:37;3.78;;;3.17;;
32138;SDS011;18644;48.700;9.210;2023-06-26T14:06:04;3.58;;;2.92;;
32138;SDS011;18644;48.700;9.210;2023-06-26T14:08:31;3.40;;;3.10;;
32138;SDS011;18644;48.700;9.210;2023-06-26T14:10:58;3.40;;;3.10;;
32138;SDS011;18644;48.700;9.210;2023-06-26T14:13:26;4.00;;;3.60;;
32138;SDS011;18644;48.700;9.210;2023-06-26T14:15:53;3.00;;;2.70;;
32138;SDS011;18644;48.700;9.210;2023-06-26T14:18:25;3.63;;;3.28;;
32138;SDS011;18644;48.700;9.210;2023-06-26T14:20:52;2.97;;;2.67;;
32138;SDS011;18644;48.700;9.210;2023-06-26T14:23:20;3.15;;;2.85;;
32138;SDS011;18644;48.700;9.210;2023-06-26T14:25:46;3.20;;;2.90;;
32138;SDS011;18644;48.700;9.210;2023-06-26T14:28:14;3.25;;;2.95;;
32138;SDS011;18644;48.700;9.210;2023-06-26T14:30:41;11.77;;;3.65;;
32138;SDS011;18644;48.700;9.210;2023-06-26T14:33:08;3.40;;;3.08;;
32138;SDS011;18644;48.700;9.210;2023-06-26T14:35:36;3.20;;;2.90;;
32138;SDS011;18644;48.700;9.210;2023-06-26T14:38:03;2.40;;;2.20;;
32138;SDS011;18644;48.700;9.210;2023-06-26T14:40:30;3.58;;;2.95;;
32138;SDS011;18644;48.700;9.210;2023-06-26T14:42:57;3.00;;;2.70;;
32138;SDS011;18644;48.700;9.210;2023-06-26T14:45:24;2.28;;;2.08;;
32138;SDS011;18644;48.700;9.210;2023-06-26T14:47:51;2.83;;;2.53;;
32138;SDS011;18644;48.700;9.210;2023-06-26T14:50:19;3.17;;;2.20;;
32138;SDS011;18644;48.700;9.210;2023-06-26T14:52:47;2.67;;;2.30;;
32138;SDS011;18644;48.700;9.210;2023-06-26T14:55:14;3.08;;;2.30;;
32138;SDS011;18644;48.700;9.210;2023-06-26T14:57:41;2.58;;;2.30;;
32138;SDS011;18644;48.700;9.210;2023-06-26T15:00:10;2.33;;;2.10;;
32138;SDS011;18644;48.700;9.210;2023-06-26T15:02:38;4.75;;;2.55;;
32138;SDS011;18644;48.700;9.210;2023-06-26T15:05:05;2.75;;;2.47;;
32138;SDS011;18644;48.700;9.210;2023-06-26T15:07:32;3.72;;;2.13;;
32138;SDS011;18644;48.700;9.210;2023-06-26T15:10:01;2.83;;;2.25;;
32138;SDS011;18644;48.700;9.210;2023-06-26T15:12:28;3.33;;;2.30;;
32138;SDS011;18644;48.700;9.210;2023-06-26T15:14:54;2.78;;;2.30;;
32138;SDS011;18644;48.700;9.210;2023-06-26T15:17:22;2.63;;;1.90;;